createdAt,value
2023-08-14T00:00:56.175Z,9.50
2023-08-14T00:03:23.970Z,7.10
2023-08-14T00:05:51.215Z,6.60
2023-08-14T00:08:18.223Z,7.90
2023-08-14T00:10:44.917Z,6.50
2023-08-14T00:13:12.287Z,7.90
2023-08-14T00:15:39.374Z,6.60
2023-08-14T00:18:06.729Z,7.90
2023-08-14T00:20:33.651Z,8.60
2023-08-14T00:23:00.408Z,7.10
2023-08-14T00:25:27.045Z,7.10
2023-08-14T00:27:54.575Z,12.10
2023-08-14T00:30:22.040Z,8.90
2023-08-14T00:32:49.167Z,7.10
2023-08-14T00:35:16.670Z,8.80
2023-08-14T00:37:45.434Z,8.00
2023-08-14T00:40:12.962Z,9.50
2023-08-14T00:42:40.502Z,7.70
2023-08-14T00:45:08.407Z,7.30
2023-08-14T00:47:38.827Z,8.60
2023-08-14T00:50:07.672Z,7.60
2023-08-14T00:52:39.175Z,6.60
2023-08-14T00:55:09.442Z,6.90
2023-08-14T00:57:37.164Z,9.20
2023-08-14T01:00:06.462Z,5.80
2023-08-14T01:02:35.206Z,6.20
2023-08-14T01:05:02.396Z,6.20
2023-08-14T01:07:31.497Z,6.30
2023-08-14T01:09:59.362Z,7.70
2023-08-14T01:12:44.840Z,8.20
2023-08-14T01:15:13.334Z,9.20
2023-08-14T01:17:41.245Z,7.70
2023-08-14T01:20:10.494Z,8.10
2023-08-14T01:22:53.240Z,7.50
2023-08-14T01:25:23.350Z,6.20
2023-08-14T01:27:50.677Z,6.50
2023-08-14T01:30:18.345Z,7.60
2023-08-14T01:32:45.021Z,7.20
2023-08-14T01:35:12.034Z,7.00
2023-08-14T01:37:38.867Z,6.80
2023-08-14T01:40:14.589Z,6.80
2023-08-14T01:42:42.103Z,8.00
2023-08-14T01:45:13.737Z,7.00
2023-08-14T01:47:42.456Z,9.50
2023-08-14T01:50:09.679Z,9.50
2023-08-14T01:52:36.516Z,10.50
2023-08-14T01:55:03.571Z,7.70
2023-08-14T01:57:31.635Z,8.30
2023-08-14T01:59:58.678Z,7.60
2023-08-14T02:02:25.550Z,6.80
2023-08-14T02:04:54.153Z,7.40
2023-08-14T02:07:21.165Z,11.80
2023-08-14T02:09:48.095Z,9.40
2023-08-14T02:12:14.969Z,9.00
2023-08-14T02:14:41.789Z,8.50
2023-08-14T02:17:08.633Z,8.50
2023-08-14T02:19:35.341Z,9.30
2023-08-14T02:22:02.104Z,8.40
2023-08-14T02:24:28.951Z,7.70
2023-08-14T02:26:55.601Z,8.50
2023-08-14T02:29:22.650Z,7.40
2023-08-14T02:31:51.930Z,7.80
2023-08-14T02:34:35.159Z,7.40
2023-08-14T02:37:02.166Z,7.20
2023-08-14T02:39:29.050Z,7.20
2023-08-14T02:41:55.631Z,7.80
2023-08-14T02:44:22.534Z,7.40
2023-08-14T02:46:49.180Z,9.40
2023-08-14T02:49:16.008Z,9.90
2023-08-14T02:51:42.849Z,7.50
2023-08-14T02:54:09.631Z,7.00
2023-08-14T02:56:36.740Z,7.50
2023-08-14T02:59:03.582Z,9.70
2023-08-14T03:01:30.479Z,14.90
2023-08-14T03:03:57.474Z,10.00
2023-08-14T03:06:24.316Z,11.60
2023-08-14T03:08:51.777Z,8.90
2023-08-14T03:11:18.617Z,10.50
2023-08-14T03:13:45.479Z,9.00
2023-08-14T03:16:12.329Z,7.10
2023-08-14T03:18:39.345Z,8.70
2023-08-14T03:21:06.188Z,7.80
2023-08-14T03:23:33.038Z,6.70
2023-08-14T03:25:59.882Z,7.10
2023-08-14T03:28:26.922Z,7.70
2023-08-14T03:30:54.199Z,5.50
2023-08-14T03:33:22.244Z,5.60
2023-08-14T03:35:49.295Z,6.00
2023-08-14T03:38:16.134Z,6.80
2023-08-14T03:40:44.208Z,6.70
2023-08-14T03:43:11.667Z,8.40
2023-08-14T03:45:38.931Z,11.40
2023-08-14T03:48:05.991Z,9.70
2023-08-14T03:50:32.806Z,7.00
2023-08-14T03:53:01.084Z,7.10
2023-08-14T03:55:27.925Z,8.10
2023-08-14T03:57:55.789Z,7.90
2023-08-14T04:00:22.639Z,8.00
2023-08-14T04:02:50.350Z,9.60
2023-08-14T04:05:17.562Z,9.70
2023-08-14T04:07:44.188Z,8.50
2023-08-14T04:10:11.437Z,7.70
2023-08-14T04:12:38.284Z,6.80
2023-08-14T04:15:17.822Z,7.20
2023-08-14T04:17:45.313Z,6.60
2023-08-14T04:20:12.539Z,10.10
2023-08-14T04:22:40.021Z,7.30
2023-08-14T04:25:07.249Z,7.60
2023-08-14T04:27:35.314Z,11.00
2023-08-14T04:30:02.769Z,7.60
2023-08-14T04:32:31.216Z,8.40
2023-08-14T04:34:58.093Z,7.60
2023-08-14T04:37:25.141Z,10.50
2023-08-14T04:39:51.982Z,8.10
2023-08-14T04:42:20.348Z,11.40
2023-08-14T04:44:47.437Z,8.00
2023-08-14T04:47:14.352Z,8.10
2023-08-14T04:49:41.201Z,8.50
2023-08-14T04:52:08.038Z,11.50
2023-08-14T04:54:36.326Z,7.80
2023-08-14T04:57:03.781Z,8.50
2023-08-14T04:59:31.432Z,7.90
2023-08-14T05:01:58.357Z,8.40
2023-08-14T05:04:25.598Z,9.60
2023-08-14T05:06:53.725Z,7.90
2023-08-14T05:09:27.207Z,9.20
2023-08-14T05:11:55.895Z,8.50
2023-08-14T05:14:22.724Z,9.00
2023-08-14T05:16:49.616Z,9.10
2023-08-14T05:19:16.628Z,8.20
2023-08-14T05:21:43.477Z,7.70
2023-08-14T05:24:10.586Z,11.30
2023-08-14T05:26:37.554Z,7.10
2023-08-14T05:29:04.598Z,7.40
2023-08-14T05:31:31.488Z,7.10
2023-08-14T05:33:58.491Z,8.70
2023-08-14T05:36:25.360Z,7.70
2023-08-14T05:38:52.383Z,7.90
2023-08-14T05:41:20.453Z,8.50
2023-08-14T05:43:47.506Z,11.50
2023-08-14T05:46:14.357Z,8.60
2023-08-14T05:48:41.189Z,9.60
2023-08-14T05:51:08.032Z,7.50
2023-08-14T05:53:34.870Z,7.50
2023-08-14T05:56:01.723Z,7.00
2023-08-14T05:58:28.556Z,7.00
2023-08-14T06:00:55.456Z,7.30
2023-08-14T06:03:33.222Z,7.70
2023-08-14T06:06:06.045Z,8.00
2023-08-14T06:08:33.335Z,8.30
2023-08-14T06:11:00.612Z,7.90
2023-08-14T06:13:27.431Z,7.50
2023-08-14T06:15:54.270Z,7.60
2023-08-14T06:18:21.115Z,8.10
2023-08-14T06:20:47.956Z,8.90
2023-08-14T06:23:14.588Z,7.00
2023-08-14T06:25:41.197Z,9.70
2023-08-14T06:28:07.940Z,8.60
2023-08-14T06:30:34.788Z,8.80
2023-08-14T06:33:03.043Z,13.70
2023-08-14T06:35:29.715Z,11.10
2023-08-14T06:37:56.364Z,8.20
2023-08-14T06:40:23.316Z,9.70
2023-08-14T06:42:50.154Z,9.20
2023-08-14T06:45:17.609Z,23.40
2023-08-14T06:47:46.322Z,8.50
2023-08-14T06:50:13.967Z,8.80
2023-08-14T06:52:41.217Z,9.90
2023-08-14T06:55:08.052Z,8.20
2023-08-14T06:57:34.723Z,9.70
2023-08-14T07:00:04.472Z,10.20
2023-08-14T07:02:31.155Z,11.20
2023-08-14T07:04:57.797Z,9.30
2023-08-14T07:07:25.075Z,8.50
2023-08-14T07:09:51.860Z,8.50
2023-08-14T07:12:19.727Z,10.20
2023-08-14T07:14:47.104Z,8.30
2023-08-14T07:17:13.939Z,8.30
2023-08-14T07:19:40.579Z,7.00
2023-08-14T07:22:07.418Z,8.90
2023-08-14T07:24:34.022Z,7.70
2023-08-14T07:27:01.521Z,8.80
2023-08-14T07:29:28.367Z,8.10
2023-08-14T07:31:55.608Z,10.20
2023-08-14T07:34:22.380Z,11.10
2023-08-14T07:36:49.302Z,8.40
2023-08-14T07:39:17.164Z,9.10
2023-08-14T07:41:43.764Z,10.30
2023-08-14T07:44:10.643Z,7.30
2023-08-14T07:46:37.239Z,7.60
2023-08-14T07:49:03.872Z,7.40
2023-08-14T07:51:30.502Z,7.70
2023-08-14T07:53:57.185Z,9.50
2023-08-14T07:56:23.779Z,9.80
2023-08-14T07:58:50.670Z,7.00
2023-08-14T08:01:17.553Z,9.30
2023-08-14T08:03:44.555Z,7.80
2023-08-14T08:06:11.261Z,10.20
2023-08-14T08:08:38.259Z,9.30
2023-08-14T08:11:05.086Z,11.10
2023-08-14T08:13:31.940Z,10.50
2023-08-14T08:15:58.786Z,9.00
2023-08-14T08:18:25.613Z,9.10
2023-08-14T08:20:52.386Z,8.50
2023-08-14T08:23:19.312Z,8.00
2023-08-14T08:25:46.155Z,7.00
2023-08-14T08:28:13.184Z,8.50
2023-08-14T08:30:40.247Z,8.50
2023-08-14T08:33:07.589Z,7.20
2023-08-14T08:35:34.328Z,7.50
2023-08-14T08:38:01.171Z,6.80
2023-08-14T08:40:28.435Z,9.20
2023-08-14T08:42:56.085Z,7.50
2023-08-14T08:45:24.202Z,7.10
2023-08-14T08:47:52.891Z,7.90
2023-08-14T08:50:19.897Z,7.60
2023-08-14T08:52:46.732Z,8.70
2023-08-14T08:55:16.295Z,9.20
2023-08-14T08:57:44.115Z,6.50
2023-08-14T09:00:11.493Z,6.90
2023-08-14T09:02:38.429Z,6.40
2023-08-14T09:05:05.654Z,6.40
2023-08-14T09:07:32.498Z,7.10
2023-08-14T09:09:59.270Z,6.30
2023-08-14T09:12:26.389Z,7.40
2023-08-14T09:15:05.355Z,6.50
2023-08-14T09:17:32.620Z,10.20
2023-08-14T09:20:01.700Z,8.10
2023-08-14T09:22:30.772Z,7.00
2023-08-14T09:24:58.157Z,6.90
2023-08-14T09:27:27.721Z,6.00
2023-08-14T09:29:55.178Z,5.80
2023-08-14T09:32:25.643Z,7.90
2023-08-14T09:35:02.504Z,6.70
2023-08-14T09:37:29.221Z,7.60
2023-08-14T09:40:08.211Z,6.90
2023-08-14T09:42:35.697Z,6.20
2023-08-14T09:45:02.695Z,6.90
2023-08-14T09:47:30.102Z,7.30
2023-08-14T09:49:57.413Z,6.40
2023-08-14T09:52:27.021Z,6.00
2023-08-14T09:54:54.521Z,7.20
2023-08-14T09:57:25.206Z,6.70
2023-08-14T09:59:54.307Z,6.60
2023-08-14T10:02:24.021Z,6.20
2023-08-14T10:04:51.479Z,7.00
2023-08-14T10:07:18.796Z,6.30
2023-08-14T10:09:46.437Z,5.90
2023-08-14T10:12:15.053Z,5.10
2023-08-14T10:14:43.234Z,5.80
2023-08-14T10:17:13.775Z,6.70
2023-08-14T10:19:41.386Z,5.20
2023-08-14T10:22:08.851Z,5.90
2023-08-14T10:24:39.785Z,7.20
2023-08-14T10:27:06.373Z,5.10
2023-08-14T10:29:34.857Z,6.20
2023-08-14T10:32:02.277Z,7.20
2023-08-14T10:34:31.624Z,5.90
2023-08-14T10:36:58.512Z,5.90
2023-08-14T10:39:38.658Z,6.20
2023-08-14T10:42:06.571Z,5.70
2023-08-14T10:44:35.820Z,7.60
2023-08-14T10:47:12.266Z,6.20
2023-08-14T10:49:46.050Z,6.10
2023-08-14T10:52:16.671Z,7.10
2023-08-14T10:54:53.517Z,7.20
2023-08-14T10:57:27.759Z,6.00
2023-08-14T10:59:58.245Z,6.30
2023-08-14T11:02:28.201Z,6.40
2023-08-14T11:05:02.261Z,6.30
2023-08-14T11:07:30.366Z,5.20
2023-08-14T11:10:01.569Z,6.50
2023-08-14T11:12:30.277Z,6.80
2023-08-14T11:14:58.367Z,5.80
2023-08-14T11:17:26.304Z,6.10
2023-08-14T11:19:53.010Z,5.70
2023-08-14T11:22:23.681Z,6.40
2023-08-14T11:24:50.375Z,7.30
2023-08-14T11:27:17.273Z,7.60
2023-08-14T11:29:51.651Z,6.40
2023-08-14T11:32:19.152Z,6.00
2023-08-14T11:34:46.415Z,6.20
2023-08-14T11:37:13.956Z,6.90
2023-08-14T11:39:41.270Z,6.50
2023-08-14T11:42:08.402Z,6.10
2023-08-14T11:44:36.016Z,6.70
2023-08-14T11:47:08.413Z,6.20
2023-08-14T11:49:39.412Z,7.40
2023-08-14T11:52:06.799Z,5.80
2023-08-14T11:54:34.888Z,6.90
2023-08-14T11:57:03.346Z,5.40
2023-08-14T11:59:30.115Z,7.40
2023-08-14T12:01:58.287Z,5.60
2023-08-14T12:04:24.941Z,6.00
2023-08-14T12:06:51.740Z,6.50
2023-08-14T12:09:18.788Z,7.60
2023-08-14T12:11:46.835Z,5.60
2023-08-14T12:14:15.281Z,5.90
2023-08-14T12:16:45.794Z,5.90
2023-08-14T12:19:13.130Z,7.10
2023-08-14T12:21:40.336Z,7.80
2023-08-14T12:24:07.185Z,8.90
2023-08-14T12:26:42.263Z,5.60
2023-08-14T12:29:09.784Z,5.90
2023-08-14T12:31:36.769Z,7.00
2023-08-14T12:34:06.859Z,6.40
2023-08-14T12:36:34.581Z,6.20
2023-08-14T12:39:01.380Z,8.50
2023-08-14T12:41:28.482Z,5.70
2023-08-14T12:43:55.210Z,6.40
2023-08-14T12:46:22.166Z,5.70
2023-08-14T12:48:48.955Z,6.20
2023-08-14T12:51:15.633Z,5.50
2023-08-14T12:53:42.278Z,5.00
2023-08-14T12:56:09.073Z,7.00
2023-08-14T12:58:35.843Z,5.50
2023-08-14T13:01:05.418Z,7.30
2023-08-14T13:06:03.143Z,7.00
2023-08-14T13:08:30.049Z,6.20
2023-08-14T13:10:56.679Z,4.90
2023-08-14T13:13:25.506Z,5.80
2023-08-14T13:15:52.320Z,5.80
2023-08-14T13:18:19.059Z,5.50
2023-08-14T13:20:45.900Z,6.00
2023-08-14T13:23:12.677Z,6.60
2023-08-14T13:25:42.490Z,6.10
2023-08-14T13:28:10.760Z,7.20
2023-08-14T13:30:37.660Z,6.80
2023-08-14T13:33:05.676Z,7.60
2023-08-14T13:35:32.420Z,5.40
2023-08-14T13:38:00.001Z,6.50
2023-08-14T13:40:26.948Z,6.20
2023-08-14T13:42:53.830Z,6.00
2023-08-14T13:45:20.875Z,5.50
2023-08-14T13:47:54.980Z,5.70
2023-08-14T13:50:33.040Z,7.30
2023-08-14T13:53:01.413Z,6.10
2023-08-14T13:55:29.522Z,5.80
2023-08-14T13:57:57.501Z,11.00
2023-08-14T14:00:28.821Z,7.00
2023-08-14T14:02:56.803Z,6.50
2023-08-14T14:05:23.678Z,5.20
2023-08-14T14:07:54.589Z,5.30
2023-08-14T14:10:23.096Z,6.90
2023-08-14T14:13:01.342Z,5.90
2023-08-14T14:15:29.061Z,7.10
2023-08-14T14:17:55.828Z,5.70
2023-08-14T14:20:22.809Z,10.30
2023-08-14T14:22:49.797Z,6.40
2023-08-14T14:25:16.665Z,5.70
2023-08-14T14:27:43.356Z,5.80
2023-08-14T14:30:10.541Z,6.80
2023-08-14T14:32:37.627Z,6.20
2023-08-14T14:35:04.836Z,5.90
2023-08-14T14:37:31.614Z,7.20
2023-08-14T14:39:58.322Z,5.80
2023-08-14T14:42:25.985Z,6.00
2023-08-14T14:44:53.233Z,6.90
2023-08-14T14:47:20.688Z,6.00
2023-08-14T14:49:48.300Z,6.80
2023-08-14T14:52:15.019Z,5.70
2023-08-14T14:54:41.690Z,6.10
2023-08-14T14:57:08.474Z,6.60
2023-08-14T14:59:35.161Z,6.40
2023-08-14T15:02:06.478Z,7.40
2023-08-14T15:04:36.161Z,7.40
2023-08-14T15:07:02.922Z,5.80
2023-08-14T15:09:29.624Z,5.90
2023-08-14T15:11:56.480Z,5.90
2023-08-14T15:14:23.124Z,5.60
2023-08-14T15:16:49.961Z,5.80
2023-08-14T15:19:16.801Z,8.00
2023-08-14T15:21:43.783Z,5.10
2023-08-14T15:24:11.847Z,7.70
2023-08-14T15:26:38.969Z,5.40
2023-08-14T15:29:05.812Z,6.50
2023-08-14T15:31:32.697Z,6.20
2023-08-14T15:33:59.511Z,5.50
2023-08-14T15:36:26.760Z,5.90
2023-08-14T15:38:54.410Z,5.40
2023-08-14T15:41:22.732Z,6.10
2023-08-14T15:43:50.770Z,5.70
2023-08-14T15:46:17.601Z,7.10
2023-08-14T15:48:46.097Z,6.10
2023-08-14T15:51:12.925Z,6.80
2023-08-14T15:53:39.766Z,5.20
2023-08-14T15:56:06.622Z,6.30
2023-08-14T15:58:33.248Z,6.90
2023-08-14T16:01:00.104Z,6.60
2023-08-14T16:03:26.977Z,7.50
2023-08-14T16:05:57.201Z,5.50
2023-08-14T16:08:23.922Z,6.90
2023-08-14T16:10:50.596Z,6.70
2023-08-14T16:13:17.216Z,5.90
2023-08-14T16:15:44.147Z,5.50
2023-08-14T16:18:11.063Z,7.20
2023-08-14T16:20:37.903Z,8.00
2023-08-14T16:23:04.949Z,6.90
2023-08-14T16:25:31.794Z,6.70
2023-08-14T16:27:58.634Z,7.70
2023-08-14T16:30:25.481Z,6.00
2023-08-14T16:32:52.365Z,6.10
2023-08-14T16:35:19.404Z,7.70
2023-08-14T16:37:46.210Z,8.50
2023-08-14T16:40:13.489Z,6.40
2023-08-14T16:42:40.303Z,6.30
2023-08-14T16:45:07.924Z,6.80
2023-08-14T16:47:34.835Z,6.90
2023-08-14T16:50:01.651Z,6.20
2023-08-14T16:52:28.289Z,7.20
2023-08-14T16:54:55.131Z,6.60
2023-08-14T16:57:22.913Z,8.40
2023-08-14T16:59:50.886Z,7.90
2023-08-14T17:02:18.163Z,6.60
2023-08-14T17:04:47.457Z,6.80
2023-08-14T17:07:14.467Z,7.60
2023-08-14T17:09:41.309Z,7.00
2023-08-14T17:12:08.358Z,7.10
2023-08-14T17:14:35.475Z,8.60
2023-08-14T17:17:02.825Z,8.50
2023-08-14T17:19:30.113Z,9.50
2023-08-14T17:21:57.527Z,6.40
2023-08-14T17:24:25.438Z,6.10
2023-08-14T17:26:52.277Z,8.20
2023-08-14T17:29:19.658Z,6.90
2023-08-14T17:31:47.017Z,7.20
2023-08-14T17:34:15.420Z,6.10
2023-08-14T17:36:43.134Z,7.90
2023-08-14T17:39:11.606Z,7.30
2023-08-14T17:41:38.711Z,9.70
2023-08-14T17:44:05.497Z,6.50
2023-08-14T17:46:32.978Z,7.20
2023-08-14T17:49:02.478Z,6.80
2023-08-14T17:51:29.797Z,9.30
2023-08-14T17:53:57.589Z,6.90
2023-08-14T17:56:25.267Z,8.70
2023-08-14T17:58:52.922Z,9.90
2023-08-14T18:01:20.398Z,8.00
2023-08-14T18:03:49.194Z,9.10
2023-08-14T18:06:17.533Z,10.90
2023-08-14T18:08:45.191Z,7.00
2023-08-14T18:11:13.667Z,8.60
2023-08-14T18:13:46.133Z,6.70
2023-08-14T18:16:14.463Z,11.60
2023-08-14T18:18:42.396Z,13.50
2023-08-14T18:21:09.672Z,7.90
2023-08-14T18:23:37.315Z,10.20
2023-08-14T18:26:04.147Z,9.50
2023-08-14T18:28:31.400Z,13.90
2023-08-14T18:30:59.063Z,16.80
2023-08-14T18:33:25.696Z,17.70
2023-08-14T18:35:53.362Z,30.90
2023-08-14T18:38:20.273Z,28.60
2023-08-14T18:40:46.942Z,20.30
2023-08-14T18:43:14.509Z,23.80
2023-08-14T18:45:41.834Z,18.60
2023-08-14T18:48:09.673Z,15.60
2023-08-14T18:50:36.669Z,15.70
2023-08-14T18:53:05.150Z,12.50
2023-08-14T18:55:33.162Z,13.70
2023-08-14T18:58:00.270Z,9.60
2023-08-14T19:00:27.933Z,16.10
2023-08-14T19:02:56.719Z,15.00
2023-08-14T19:05:24.483Z,13.90
2023-08-14T19:07:52.242Z,10.70
2023-08-14T19:10:19.812Z,8.90
2023-08-14T19:12:47.409Z,10.20
2023-08-14T19:15:14.724Z,11.80
2023-08-14T19:17:42.414Z,8.80
2023-08-14T19:20:10.455Z,9.80
2023-08-14T19:22:38.129Z,11.00
2023-08-14T19:25:05.776Z,11.90
2023-08-14T19:27:33.028Z,14.30
2023-08-14T19:30:00.723Z,15.40
2023-08-14T19:32:27.941Z,12.80
2023-08-14T19:34:54.862Z,11.00
2023-08-14T19:37:23.778Z,11.70
2023-08-14T19:39:50.947Z,13.60
2023-08-14T19:42:17.776Z,11.00
2023-08-14T19:44:45.024Z,15.00
2023-08-14T19:47:11.870Z,13.50
2023-08-14T19:49:38.919Z,12.30
2023-08-14T19:52:05.966Z,10.60
2023-08-14T19:54:33.629Z,13.00
2023-08-14T19:57:02.948Z,15.60
2023-08-14T19:59:31.203Z,13.70
2023-08-14T20:02:00.108Z,13.30
2023-08-14T20:04:27.242Z,12.00
2023-08-14T20:06:54.598Z,14.20
2023-08-14T20:09:22.669Z,13.30
2023-08-14T20:11:49.511Z,13.70
2023-08-14T20:14:16.968Z,13.40
2023-08-14T20:16:45.237Z,13.30
2023-08-14T20:19:12.747Z,14.70
2023-08-14T20:21:40.975Z,14.00
2023-08-14T20:24:09.669Z,13.80
2023-08-14T20:26:37.325Z,12.90
2023-08-14T20:29:04.986Z,13.30
2023-08-14T20:31:34.012Z,15.60
2023-08-14T20:34:01.100Z,13.60
2023-08-14T20:36:29.227Z,13.50
2023-08-14T20:38:57.037Z,14.30
2023-08-14T20:41:23.911Z,12.90
2023-08-14T20:43:50.955Z,16.10
2023-08-14T20:46:17.901Z,15.20
2023-08-14T20:48:44.857Z,15.60
2023-08-14T20:51:13.136Z,15.10
2023-08-14T20:53:41.219Z,13.80
2023-08-14T20:56:08.252Z,14.00
2023-08-14T20:58:35.096Z,13.20
2023-08-14T21:01:02.556Z,18.80
2023-08-14T21:03:29.525Z,14.50
2023-08-14T21:05:57.573Z,18.40
2023-08-14T21:08:24.473Z,14.30
2023-08-14T21:10:51.355Z,12.40
2023-08-14T21:13:18.197Z,14.30
2023-08-14T21:15:44.975Z,14.10
2023-08-14T21:18:11.944Z,14.50
2023-08-14T21:20:41.799Z,12.90
2023-08-14T21:23:08.641Z,14.80
2023-08-14T21:25:46.379Z,15.70
2023-08-14T21:28:13.787Z,12.40
2023-08-14T21:30:40.648Z,13.60
2023-08-14T21:33:07.545Z,15.30
2023-08-14T21:35:34.739Z,14.60
2023-08-14T21:38:01.582Z,11.60
2023-08-14T21:40:28.638Z,13.20
2023-08-14T21:42:57.516Z,12.80
2023-08-14T21:45:24.362Z,12.90
2023-08-14T21:47:51.275Z,13.30
2023-08-14T21:50:18.251Z,13.40
2023-08-14T21:52:45.043Z,11.90
2023-08-14T21:55:11.728Z,13.40
2023-08-14T21:57:38.573Z,17.10
2023-08-14T22:00:05.821Z,15.10
2023-08-14T22:02:35.531Z,16.00
2023-08-14T22:05:02.577Z,16.20
2023-08-14T22:07:29.410Z,15.70
2023-08-14T22:09:56.007Z,15.60
2023-08-14T22:12:22.622Z,17.00
2023-08-14T22:14:49.526Z,17.00
2023-08-14T22:17:16.368Z,16.30
2023-08-14T22:19:43.143Z,16.50
2023-08-14T22:22:10.262Z,14.70
2023-08-14T22:24:41.384Z,17.10
2023-08-14T22:27:09.276Z,16.60
2023-08-14T22:29:36.318Z,16.70
2023-08-14T22:32:03.364Z,19.00
2023-08-14T22:34:30.229Z,15.50
2023-08-14T22:36:56.971Z,15.40
2023-08-14T22:39:23.889Z,15.00
2023-08-14T22:41:50.732Z,14.50
2023-08-14T22:44:17.499Z,17.30
2023-08-14T22:46:44.388Z,16.90
2023-08-14T22:49:12.334Z,15.50
2023-08-14T22:51:39.333Z,17.30
2023-08-14T22:54:06.181Z,16.00
2023-08-14T22:56:32.967Z,20.60
2023-08-14T22:58:59.654Z,17.60
2023-08-14T23:01:26.565Z,19.90
2023-08-14T23:03:53.626Z,17.00
2023-08-14T23:06:20.596Z,15.00
2023-08-14T23:08:47.441Z,18.50
2023-08-14T23:11:14.279Z,18.20
2023-08-14T23:13:41.052Z,17.00
2023-08-14T23:16:07.829Z,16.50
2023-08-14T23:18:34.607Z,14.50
2023-08-14T23:21:01.444Z,19.60
2023-08-14T23:23:28.291Z,14.60
2023-08-14T23:25:54.943Z,15.40
2023-08-14T23:28:21.766Z,14.90
2023-08-14T23:30:50.470Z,15.60
2023-08-14T23:33:17.509Z,16.00
2023-08-14T23:35:44.554Z,12.90
2023-08-14T23:38:11.389Z,14.70
2023-08-14T23:40:38.238Z,15.50
2023-08-14T23:43:05.077Z,17.70
2023-08-14T23:45:32.330Z,15.90
2023-08-14T23:47:59.212Z,16.80
2023-08-14T23:50:26.219Z,18.80
2023-08-14T23:52:53.063Z,14.20
2023-08-14T23:55:19.907Z,16.50
2023-08-14T23:57:46.754Z,14.40
